createdAt,value
2022-08-19T00:00:06.625Z,19.47
2022-08-19T00:02:36.608Z,19.46
2022-08-19T00:05:06.169Z,19.42
2022-08-19T00:07:34.431Z,19.40
2022-08-19T00:10:02.626Z,19.30
2022-08-19T00:12:30.902Z,19.30
2022-08-19T00:14:59.311Z,19.36
2022-08-19T00:17:27.511Z,19.36
2022-08-19T00:19:57.298Z,19.35
2022-08-19T00:22:28.152Z,19.28
2022-08-19T00:24:56.581Z,19.23
2022-08-19T00:27:26.914Z,19.23
2022-08-19T00:29:55.450Z,19.26
2022-08-19T00:32:24.030Z,19.18
2022-08-19T00:34:54.464Z,19.17
2022-08-19T00:37:26.618Z,19.17
2022-08-19T00:39:56.921Z,19.12
2022-08-19T00:42:29.412Z,19.11
2022-08-19T00:44:57.839Z,19.08
2022-08-19T00:47:26.088Z,19.05
2022-08-19T00:49:58.049Z,19.01
2022-08-19T00:52:31.040Z,19.10
2022-08-19T00:55:00.616Z,19.01
2022-08-19T00:57:34.442Z,18.96
2022-08-19T01:00:04.251Z,19.01
2022-08-19T01:02:34.524Z,18.94
2022-08-19T01:05:07.069Z,18.96
2022-08-19T01:07:38.447Z,18.95
2022-08-19T01:10:12.758Z,18.84
2022-08-19T01:12:41.645Z,18.86
2022-08-19T01:15:12.895Z,18.77
2022-08-19T01:17:42.816Z,18.80
2022-08-19T01:20:14.551Z,18.76
2022-08-19T01:22:47.123Z,18.77
2022-08-19T01:25:16.842Z,18.65
2022-08-19T01:27:48.532Z,18.65
2022-08-19T01:30:23.524Z,18.66
2022-08-19T01:32:52.018Z,18.68
2022-08-19T01:35:21.160Z,18.75
2022-08-19T01:37:53.381Z,18.72
2022-08-19T01:40:23.643Z,18.77
2022-08-19T01:42:52.916Z,18.63
2022-08-19T01:45:22.898Z,18.61
2022-08-19T01:48:01.296Z,18.63
2022-08-19T01:50:31.302Z,18.57
2022-08-19T01:53:06.158Z,18.60
2022-08-19T01:55:40.828Z,18.54
2022-08-19T01:58:13.857Z,18.55
2022-08-19T02:00:42.896Z,18.48
2022-08-19T02:03:12.384Z,18.49
2022-08-19T02:05:42.023Z,18.46
2022-08-19T02:08:13.036Z,18.48
2022-08-19T02:10:44.843Z,18.45
2022-08-19T02:13:14.631Z,18.44
2022-08-19T02:15:43.318Z,18.41
2022-08-19T02:18:12.175Z,18.43
2022-08-19T02:20:42.397Z,18.44
2022-08-19T02:23:16.075Z,18.43
2022-08-19T02:25:45.452Z,18.40
2022-08-19T02:28:18.019Z,18.34
2022-08-19T02:30:48.410Z,18.31
2022-08-19T02:33:18.217Z,18.30
2022-08-19T02:35:47.541Z,18.32
2022-08-19T02:38:28.729Z,18.34
2022-08-19T02:41:00.443Z,18.31
2022-08-19T02:43:32.195Z,18.29
2022-08-19T02:46:02.771Z,18.36
2022-08-19T02:48:31.083Z,18.29
2022-08-19T02:51:00.470Z,18.26
2022-08-19T02:53:30.938Z,18.17
2022-08-19T02:55:59.411Z,18.21
2022-08-19T02:58:28.365Z,18.24
2022-08-19T03:00:58.357Z,18.22
2022-08-19T03:03:26.931Z,18.20
2022-08-19T03:06:05.865Z,18.23
2022-08-19T03:08:35.678Z,18.24
2022-08-19T03:11:04.486Z,18.19
2022-08-19T03:13:32.975Z,18.27
2022-08-19T03:16:01.121Z,18.31
2022-08-19T03:18:29.294Z,18.27
2022-08-19T03:20:58.204Z,18.23
2022-08-19T03:23:26.304Z,18.23
2022-08-19T03:26:03.005Z,18.27
2022-08-19T03:28:51.380Z,18.30
2022-08-19T03:31:44.857Z,18.29
2022-08-19T03:34:18.298Z,18.21
2022-08-19T03:36:47.207Z,18.18
2022-08-19T03:39:16.133Z,18.20
2022-08-19T03:41:48.545Z,18.20
2022-08-19T03:44:19.405Z,18.18
2022-08-19T03:46:49.045Z,18.23
2022-08-19T03:49:18.178Z,18.22
2022-08-19T03:51:48.031Z,18.26
2022-08-19T03:54:18.567Z,18.26
2022-08-19T03:56:51.049Z,18.27
2022-08-19T03:59:22.278Z,18.30
2022-08-19T04:01:50.405Z,18.32
2022-08-19T04:04:20.007Z,18.25
2022-08-19T04:06:48.949Z,18.25
2022-08-19T04:09:17.875Z,18.29
2022-08-19T04:11:50.483Z,18.30
2022-08-19T04:14:21.071Z,18.09
2022-08-19T04:16:50.626Z,18.21
2022-08-19T04:19:20.976Z,18.20
2022-08-19T04:21:52.619Z,18.22
2022-08-19T04:24:21.783Z,18.14
2022-08-19T04:26:52.166Z,18.21
2022-08-19T04:29:22.778Z,18.15
2022-08-19T04:31:52.127Z,18.12
2022-08-19T04:34:24.399Z,18.09
2022-08-19T04:36:54.007Z,18.08
2022-08-19T04:39:46.780Z,18.10
2022-08-19T04:42:35.480Z,18.10
2022-08-19T04:45:05.278Z,18.17
2022-08-19T04:47:47.576Z,18.16
2022-08-19T04:50:23.625Z,18.08
2022-08-19T04:52:53.614Z,18.13
2022-08-19T04:55:21.924Z,18.19
2022-08-19T04:57:51.888Z,18.21
2022-08-19T05:00:20.492Z,18.22
2022-08-19T05:02:50.371Z,18.13
2022-08-19T05:05:20.792Z,18.19
2022-08-19T05:07:49.068Z,18.17
2022-08-19T05:10:17.559Z,18.18
2022-08-19T05:12:45.853Z,18.25
2022-08-19T05:15:15.690Z,18.29
2022-08-19T05:18:04.444Z,18.31
2022-08-19T05:20:50.279Z,18.20
2022-08-19T05:23:22.061Z,18.19
2022-08-19T05:25:51.459Z,18.27
2022-08-19T05:28:19.831Z,18.26
2022-08-19T05:30:51.813Z,18.31
2022-08-19T05:33:20.535Z,18.17
2022-08-19T05:35:50.521Z,18.30
2022-08-19T05:38:20.461Z,18.38
2022-08-19T05:40:52.263Z,18.42
2022-08-19T05:43:20.956Z,18.44
2022-08-19T05:45:51.891Z,18.50
2022-08-19T05:48:29.351Z,18.54
2022-08-19T05:50:58.800Z,18.60
2022-08-19T05:53:30.901Z,18.57
2022-08-19T05:55:59.057Z,18.58
2022-08-19T05:58:28.281Z,18.68
2022-08-19T06:00:57.812Z,18.75
2022-08-19T06:03:25.889Z,18.76
2022-08-19T06:05:56.076Z,18.79
2022-08-19T06:08:34.227Z,18.79
2022-08-19T06:11:18.049Z,18.79
2022-08-19T06:13:48.601Z,18.89
2022-08-19T06:16:23.260Z,18.92
2022-08-19T06:18:53.565Z,18.93
2022-08-19T06:21:22.715Z,19.03
2022-08-19T06:23:51.924Z,19.07
2022-08-19T06:26:21.962Z,19.10
2022-08-19T06:28:50.653Z,19.11
2022-08-19T06:31:25.249Z,19.10
2022-08-19T06:33:53.878Z,19.21
2022-08-19T06:36:28.577Z,19.26
2022-08-19T06:38:57.987Z,19.29
2022-08-19T06:41:26.676Z,19.32
2022-08-19T06:43:55.733Z,19.40
2022-08-19T06:46:26.285Z,19.38
2022-08-19T06:48:55.890Z,19.45
2022-08-19T06:51:24.941Z,19.47
2022-08-19T06:53:55.077Z,19.53
2022-08-19T06:56:31.862Z,19.55
2022-08-19T06:59:00.157Z,19.62
2022-08-19T07:01:30.378Z,19.75
2022-08-19T07:03:58.633Z,19.76
2022-08-19T07:06:43.303Z,19.77
2022-08-19T07:09:14.175Z,20.02
2022-08-19T07:11:46.737Z,19.96
2022-08-19T07:14:19.586Z,20.00
2022-08-19T07:16:52.490Z,19.88
2022-08-19T07:19:22.126Z,19.89
2022-08-19T07:21:52.004Z,19.94
2022-08-19T07:24:21.018Z,20.02
2022-08-19T07:26:51.768Z,20.15
2022-08-19T07:29:21.418Z,20.13
2022-08-19T07:31:57.090Z,20.23
2022-08-19T07:34:26.398Z,20.36
2022-08-19T07:36:56.582Z,20.35
2022-08-19T07:39:27.593Z,20.44
2022-08-19T07:41:56.642Z,20.59
2022-08-19T07:44:24.826Z,20.66
2022-08-19T07:46:57.818Z,20.68
2022-08-19T07:49:26.806Z,20.72
2022-08-19T07:51:57.574Z,20.88
2022-08-19T07:54:28.121Z,20.84
2022-08-19T07:56:56.264Z,21.08
2022-08-19T07:59:25.145Z,21.27
2022-08-19T08:01:55.062Z,21.34
2022-08-19T08:04:41.087Z,21.17
2022-08-19T08:07:31.487Z,21.10
2022-08-19T08:10:03.065Z,21.31
2022-08-19T08:12:35.297Z,21.40
2022-08-19T08:15:08.958Z,21.35
2022-08-19T08:17:49.056Z,21.35
2022-08-19T08:20:18.522Z,21.42
2022-08-19T08:23:06.935Z,21.44
2022-08-19T08:25:36.729Z,21.45
2022-08-19T08:28:11.439Z,21.45
2022-08-19T08:30:48.964Z,21.52
2022-08-19T08:33:33.866Z,21.56
2022-08-19T08:36:06.481Z,21.55
2022-08-19T08:38:40.146Z,21.64
2022-08-19T08:41:20.907Z,21.69
2022-08-19T08:43:54.227Z,21.77
2022-08-19T08:46:30.983Z,21.66
2022-08-19T08:49:19.882Z,21.70
2022-08-19T08:51:59.602Z,21.70
2022-08-19T08:54:37.806Z,21.79
2022-08-19T08:57:12.154Z,21.87
2022-08-19T08:59:43.954Z,21.87
2022-08-19T09:02:12.701Z,22.01
2022-08-19T09:04:42.705Z,22.12
2022-08-19T09:07:47.371Z,22.31
2022-08-19T09:10:25.796Z,22.15
2022-08-19T09:13:03.432Z,22.26
2022-08-19T09:15:45.581Z,22.29
2022-08-19T09:18:19.214Z,22.43
2022-08-19T09:20:54.049Z,22.59
2022-08-19T09:23:26.788Z,22.53
2022-08-19T09:25:56.259Z,22.55
2022-08-19T09:28:27.524Z,22.93
2022-08-19T09:30:56.700Z,23.05
2022-08-19T09:33:25.407Z,22.91
2022-08-19T09:36:08.531Z,22.92
2022-08-19T09:38:43.665Z,22.98
2022-08-19T09:41:26.383Z,22.88
2022-08-19T09:43:59.337Z,23.01
2022-08-19T09:46:45.983Z,22.84
2022-08-19T09:49:22.767Z,23.13
2022-08-19T09:52:00.753Z,23.15
2022-08-19T09:54:46.871Z,22.98
2022-08-19T09:57:56.895Z,22.91
2022-08-19T10:00:44.055Z,22.80
2022-08-19T10:03:19.382Z,22.71
2022-08-19T10:05:55.127Z,23.02
2022-08-19T10:08:27.750Z,23.14
2022-08-19T10:10:57.024Z,23.15
2022-08-19T10:13:29.989Z,23.13
2022-08-19T10:16:04.104Z,23.34
2022-08-19T10:18:35.225Z,23.46
2022-08-19T10:21:11.630Z,23.27
2022-08-19T10:23:46.118Z,23.17
2022-08-19T10:26:21.187Z,23.16
2022-08-19T10:28:50.533Z,23.20
2022-08-19T10:31:21.871Z,23.57
2022-08-19T10:34:26.787Z,23.71
2022-08-19T10:37:01.241Z,23.62
2022-08-19T10:39:42.533Z,23.45
2022-08-19T10:42:14.483Z,23.52
2022-08-19T10:44:54.041Z,23.53
2022-08-19T10:47:25.586Z,23.43
2022-08-19T10:50:15.930Z,23.54
2022-08-19T10:52:50.854Z,23.70
2022-08-19T10:55:43.684Z,23.59
2022-08-19T10:58:14.364Z,23.89
2022-08-19T11:00:45.008Z,23.99
2022-08-19T11:03:18.438Z,23.91
2022-08-19T11:05:47.470Z,23.85
2022-08-19T11:08:23.402Z,24.26
2022-08-19T11:11:01.732Z,24.14
2022-08-19T11:13:30.376Z,24.10
2022-08-19T11:16:05.119Z,24.09
2022-08-19T11:18:39.550Z,24.42
2022-08-19T11:21:09.638Z,24.35
2022-08-19T11:23:37.895Z,24.44
2022-08-19T11:26:07.476Z,24.41
2022-08-19T11:28:36.006Z,24.03
2022-08-19T11:31:05.239Z,24.23
2022-08-19T11:33:33.870Z,24.20
2022-08-19T11:36:02.785Z,24.38
2022-08-19T11:38:31.708Z,24.56
2022-08-19T11:41:01.374Z,24.54
2022-08-19T11:43:36.744Z,24.87
2022-08-19T11:46:08.939Z,24.84
2022-08-19T11:48:37.709Z,24.89
2022-08-19T11:51:08.575Z,24.60
2022-08-19T11:53:37.627Z,24.82
2022-08-19T11:56:06.753Z,24.92
2022-08-19T11:58:36.435Z,25.07
2022-08-19T12:01:09.118Z,24.86
2022-08-19T12:03:37.855Z,25.17
2022-08-19T12:06:08.279Z,25.29
2022-08-19T12:08:37.206Z,25.02
2022-08-19T12:11:05.570Z,25.44
2022-08-19T12:14:31.992Z,25.44
2022-08-19T12:17:02.989Z,25.52
2022-08-19T12:19:31.200Z,25.56
2022-08-19T12:22:02.635Z,25.76
2022-08-19T12:24:33.041Z,25.56
2022-08-19T12:27:03.143Z,25.74
2022-08-19T12:29:31.925Z,25.44
2022-08-19T12:58:31.194Z,25.90
2022-08-19T13:00:59.920Z,26.23
2022-08-19T13:03:30.870Z,25.96
2022-08-19T13:06:02.286Z,25.92
2022-08-19T13:08:48.728Z,25.82
2022-08-19T13:16:53.432Z,26.24
2022-08-19T13:20:11.135Z,26.58
2022-08-19T13:51:23.132Z,26.76
2022-08-19T15:55:41.360Z,26.14
2022-08-19T18:58:12.588Z,23.97
2022-08-19T19:00:43.961Z,24.04
2022-08-19T19:03:30.813Z,23.87
2022-08-19T19:05:59.738Z,23.93
2022-08-19T19:08:28.162Z,23.92
2022-08-19T19:10:58.948Z,23.87
2022-08-19T19:13:29.006Z,23.89
2022-08-19T19:15:59.960Z,23.82
2022-08-19T19:18:28.592Z,23.81
2022-08-19T19:20:57.425Z,23.88
2022-08-19T19:23:26.036Z,23.86
2022-08-19T19:25:54.511Z,23.82
2022-08-19T19:28:25.377Z,23.76
2022-08-19T19:30:57.845Z,23.84
2022-08-19T19:33:29.034Z,23.74
2022-08-19T19:35:57.637Z,23.71
2022-08-19T19:38:26.069Z,23.94
2022-08-19T19:40:54.268Z,23.75
2022-08-19T19:43:22.661Z,23.63
2022-08-19T19:45:52.045Z,23.73
2022-08-19T19:48:20.591Z,23.52
2022-08-19T19:50:54.278Z,23.44
2022-08-19T19:53:26.199Z,23.41
2022-08-19T19:55:58.817Z,23.37
2022-08-19T19:58:28.863Z,23.31
2022-08-19T20:00:59.402Z,23.39
2022-08-19T20:03:29.960Z,23.30
2022-08-19T20:06:00.570Z,23.31
2022-08-19T20:08:46.762Z,23.37
2022-08-19T20:11:30.637Z,23.42
2022-08-19T20:14:01.841Z,23.40
2022-08-19T20:16:31.586Z,23.42
2022-08-19T20:19:01.616Z,23.30
2022-08-19T20:21:34.866Z,23.29
2022-08-19T20:24:09.050Z,23.33
2022-08-19T20:26:38.394Z,23.18
2022-08-19T20:29:13.617Z,23.10
2022-08-19T20:31:57.703Z,23.11
2022-08-19T20:34:28.806Z,23.11
2022-08-19T20:36:59.002Z,23.04
2022-08-19T20:39:29.343Z,23.03
2022-08-19T20:41:57.574Z,23.03
2022-08-19T20:44:25.903Z,22.93
2022-08-19T20:46:54.203Z,22.96
2022-08-19T20:49:26.993Z,22.92
2022-08-19T20:51:55.898Z,22.86
2022-08-19T20:54:25.873Z,22.86
2022-08-19T20:56:54.586Z,22.82
2022-08-19T20:59:23.721Z,22.84
2022-08-19T21:01:52.544Z,22.82
2022-08-19T21:04:22.422Z,22.81
2022-08-19T21:06:51.224Z,22.81
2022-08-19T21:09:20.957Z,22.77
2022-08-19T21:11:52.016Z,22.77
2022-08-19T21:14:20.484Z,22.77
2022-08-19T21:16:49.352Z,22.76
2022-08-19T21:19:22.018Z,22.72
2022-08-19T21:21:52.162Z,22.67
2022-08-19T21:24:20.318Z,22.69
2022-08-19T21:26:51.299Z,22.55
2022-08-19T21:29:21.965Z,22.59
2022-08-19T21:31:50.368Z,22.69
2022-08-19T21:34:18.723Z,22.68
2022-08-19T21:36:47.178Z,22.61
2022-08-19T21:39:15.450Z,22.48
2022-08-19T21:41:43.915Z,22.40
2022-08-19T21:44:12.195Z,22.46
2022-08-19T21:46:41.880Z,22.37
2022-08-19T21:49:10.243Z,22.35
2022-08-19T21:51:38.420Z,22.61
2022-08-19T21:54:06.607Z,22.43
2022-08-19T21:56:35.133Z,22.37
2022-08-19T21:59:03.346Z,22.25
2022-08-19T22:01:31.464Z,22.20
2022-08-19T22:04:01.014Z,22.14
2022-08-19T22:06:29.332Z,22.13
2022-08-19T22:08:57.647Z,22.11
2022-08-19T22:11:27.087Z,22.03
2022-08-19T22:13:56.170Z,22.04
2022-08-19T22:16:25.376Z,21.97
2022-08-19T22:18:53.502Z,22.00
2022-08-19T22:21:39.737Z,22.03
2022-08-19T22:24:09.356Z,21.99
2022-08-19T22:26:37.472Z,22.02
2022-08-19T22:29:05.603Z,21.96
2022-08-19T22:31:34.012Z,21.96
2022-08-19T22:34:03.818Z,21.91
2022-08-19T22:36:33.624Z,21.97
2022-08-19T22:39:02.522Z,22.01
2022-08-19T22:41:33.370Z,21.93
2022-08-19T22:44:01.713Z,21.94
2022-08-19T22:46:30.000Z,21.89
2022-08-19T22:49:01.007Z,21.97
2022-08-19T22:51:47.613Z,21.91
2022-08-19T22:54:18.152Z,21.96
2022-08-19T22:56:46.516Z,21.92
2022-08-19T22:59:14.579Z,22.01
2022-08-19T23:01:42.989Z,21.88
2022-08-19T23:04:11.376Z,21.84
2022-08-19T23:06:42.015Z,21.78
2022-08-19T23:09:16.614Z,21.70
2022-08-19T23:11:47.177Z,21.47
2022-08-19T23:14:16.212Z,21.47
2022-08-19T23:16:50.474Z,21.47
2022-08-19T23:19:19.450Z,21.45
2022-08-19T23:21:47.747Z,21.41
2022-08-19T23:24:16.005Z,21.39
2022-08-19T23:27:04.520Z,21.37
2022-08-19T23:29:51.538Z,21.35
2022-08-19T23:32:21.176Z,21.33
2022-08-19T23:34:50.071Z,21.32
2022-08-19T23:37:18.414Z,21.23
2022-08-19T23:39:46.723Z,21.31
2022-08-19T23:42:15.818Z,21.27
2022-08-19T23:44:52.359Z,21.29
2022-08-19T23:47:21.856Z,21.16
2022-08-19T23:49:50.781Z,21.17
2022-08-19T23:52:19.160Z,21.29
2022-08-19T23:54:47.313Z,21.23
2022-08-19T23:57:15.535Z,21.15
2022-08-19T23:59:46.370Z,21.14
